sensor_id;sensor_type;location;lat;lon;timestamp;P1;durP1;ratioP1;P2;durP2;ratioP2
11125;SDS011;5617;54.046;10.676;2023-05-10T00:01:51;5.33;;;2.50;;
11125;SDS011;5617;54.046;10.676;2023-05-10T00:03:59;2.77;;;2.20;;
11125;SDS011;5617;54.046;10.676;2023-05-10T00:06:07;3.27;;;2.40;;
11125;SDS011;5617;54.046;10.676;2023-05-10T00:08:16;4.50;;;2.37;;
11125;SDS011;5617;54.046;10.676;2023-05-10T00:10:24;3.10;;;2.30;;
11125;SDS011;5617;54.046;10.676;2023-05-10T00:12:39;3.43;;;2.20;;
11125;SDS011;5617;54.046;10.676;2023-05-10T00:14:47;3.00;;;2.30;;
11125;SDS011;5617;54.046;10.676;2023-05-10T00:16:55;2.83;;;2.23;;
11125;SDS011;5617;54.046;10.676;2023-05-10T00:19:03;3.60;;;2.50;;
11125;SDS011;5617;54.046;10.676;2023-05-10T00:21:15;4.00;;;2.50;;
11125;SDS011;5617;54.046;10.676;2023-05-10T00:23:24;2.43;;;2.23;;
11125;SDS011;5617;54.046;10.676;2023-05-10T00:25:32;4.30;;;2.40;;
11125;SDS011;5617;54.046;10.676;2023-05-10T00:27:40;4.20;;;2.40;;
11125;SDS011;5617;54.046;10.676;2023-05-10T00:29:47;2.90;;;2.40;;
11125;SDS011;5617;54.046;10.676;2023-05-10T00:31:55;3.83;;;2.37;;
11125;SDS011;5617;54.046;10.676;2023-05-10T00:34:03;2.90;;;2.07;;
11125;SDS011;5617;54.046;10.676;2023-05-10T00:36:10;2.67;;;2.30;;
11125;SDS011;5617;54.046;10.676;2023-05-10T00:38:19;2.77;;;2.23;;
11125;SDS011;5617;54.046;10.676;2023-05-10T00:40:29;3.80;;;2.53;;
11125;SDS011;5617;54.046;10.676;2023-05-10T00:42:36;2.70;;;2.50;;
11125;SDS011;5617;54.046;10.676;2023-05-10T00:44:45;2.67;;;2.30;;
11125;SDS011;5617;54.046;10.676;2023-05-10T00:46:53;3.53;;;2.50;;
11125;SDS011;5617;54.046;10.676;2023-05-10T00:49:01;2.83;;;2.50;;
11125;SDS011;5617;54.046;10.676;2023-05-10T00:51:08;4.30;;;2.87;;
11125;SDS011;5617;54.046;10.676;2023-05-10T00:53:16;2.57;;;2.37;;
11125;SDS011;5617;54.046;10.676;2023-05-10T00:55:24;3.70;;;2.20;;
11125;SDS011;5617;54.046;10.676;2023-05-10T00:57:33;3.50;;;2.53;;
11125;SDS011;5617;54.046;10.676;2023-05-10T00:59:41;5.50;;;2.70;;
11125;SDS011;5617;54.046;10.676;2023-05-10T01:01:48;3.60;;;2.53;;
11125;SDS011;5617;54.046;10.676;2023-05-10T01:03:57;4.47;;;2.33;;
11125;SDS011;5617;54.046;10.676;2023-05-10T01:06:07;4.43;;;2.73;;
11125;SDS011;5617;54.046;10.676;2023-05-10T01:08:15;4.13;;;2.57;;
11125;SDS011;5617;54.046;10.676;2023-05-10T01:10:23;2.63;;;2.43;;
11125;SDS011;5617;54.046;10.676;2023-05-10T01:12:30;2.83;;;2.53;;
11125;SDS011;5617;54.046;10.676;2023-05-10T01:14:40;2.47;;;2.27;;
11125;SDS011;5617;54.046;10.676;2023-05-10T01:16:48;3.83;;;2.60;;
11125;SDS011;5617;54.046;10.676;2023-05-10T01:18:56;3.07;;;2.60;;
11125;SDS011;5617;54.046;10.676;2023-05-10T01:21:06;3.70;;;2.40;;
11125;SDS011;5617;54.046;10.676;2023-05-10T01:23:45;2.77;;;2.40;;
11125;SDS011;5617;54.046;10.676;2023-05-10T01:26:19;4.13;;;2.50;;
11125;SDS011;5617;54.046;10.676;2023-05-10T01:28:56;2.50;;;2.30;;
11125;SDS011;5617;54.046;10.676;2023-05-10T01:31:22;3.00;;;2.70;;
11125;SDS011;5617;54.046;10.676;2023-05-10T01:33:40;3.03;;;2.70;;
11125;SDS011;5617;54.046;10.676;2023-05-10T01:35:55;2.70;;;2.50;;
11125;SDS011;5617;54.046;10.676;2023-05-10T01:38:13;2.80;;;2.50;;
11125;SDS011;5617;54.046;10.676;2023-05-10T01:40:29;3.40;;;2.70;;
11125;SDS011;5617;54.046;10.676;2023-05-10T01:42:44;3.50;;;2.53;;
11125;SDS011;5617;54.046;10.676;2023-05-10T01:44:56;3.43;;;2.80;;
11125;SDS011;5617;54.046;10.676;2023-05-10T01:47:09;2.83;;;2.43;;
11125;SDS011;5617;54.046;10.676;2023-05-10T01:49:22;3.23;;;2.67;;
11125;SDS011;5617;54.046;10.676;2023-05-10T01:51:35;3.30;;;2.70;;
11125;SDS011;5617;54.046;10.676;2023-05-10T01:53:54;4.87;;;2.80;;
11125;SDS011;5617;54.046;10.676;2023-05-10T01:56:06;3.30;;;2.40;;
11125;SDS011;5617;54.046;10.676;2023-05-10T01:58:17;6.00;;;2.70;;
11125;SDS011;5617;54.046;10.676;2023-05-10T02:00:27;3.23;;;2.47;;
11125;SDS011;5617;54.046;10.676;2023-05-10T02:02:37;3.10;;;2.80;;
11125;SDS011;5617;54.046;10.676;2023-05-10T02:04:47;4.90;;;3.00;;
11125;SDS011;5617;54.046;10.676;2023-05-10T02:06:57;4.53;;;2.73;;
11125;SDS011;5617;54.046;10.676;2023-05-10T02:09:05;3.77;;;2.83;;
11125;SDS011;5617;54.046;10.676;2023-05-10T02:11:14;3.87;;;2.70;;
11125;SDS011;5617;54.046;10.676;2023-05-10T02:13:21;3.53;;;2.73;;
11125;SDS011;5617;54.046;10.676;2023-05-10T02:15:31;4.13;;;2.70;;
11125;SDS011;5617;54.046;10.676;2023-05-10T02:17:40;3.20;;;2.87;;
11125;SDS011;5617;54.046;10.676;2023-05-10T02:19:51;3.43;;;2.90;;
11125;SDS011;5617;54.046;10.676;2023-05-10T02:22:01;3.00;;;2.70;;
11125;SDS011;5617;54.046;10.676;2023-05-10T02:24:10;2.97;;;2.60;;
11125;SDS011;5617;54.046;10.676;2023-05-10T02:26:19;5.50;;;3.00;;
11125;SDS011;5617;54.046;10.676;2023-05-10T02:28:30;4.80;;;2.80;;
11125;SDS011;5617;54.046;10.676;2023-05-10T02:30:46;3.43;;;2.70;;
11125;SDS011;5617;54.046;10.676;2023-05-10T02:32:55;3.23;;;2.90;;
11125;SDS011;5617;54.046;10.676;2023-05-10T02:35:07;3.83;;;3.00;;
11125;SDS011;5617;54.046;10.676;2023-05-10T02:37:16;3.57;;;2.77;;
11125;SDS011;5617;54.046;10.676;2023-05-10T02:39:25;3.97;;;2.90;;
11125;SDS011;5617;54.046;10.676;2023-05-10T02:41:35;3.97;;;2.83;;
11125;SDS011;5617;54.046;10.676;2023-05-10T02:43:44;3.43;;;2.63;;
11125;SDS011;5617;54.046;10.676;2023-05-10T02:45:54;3.20;;;2.90;;
11125;SDS011;5617;54.046;10.676;2023-05-10T02:48:01;3.50;;;2.70;;
11125;SDS011;5617;54.046;10.676;2023-05-10T02:50:11;4.47;;;3.53;;
11125;SDS011;5617;54.046;10.676;2023-05-10T02:52:21;3.23;;;2.97;;
11125;SDS011;5617;54.046;10.676;2023-05-10T02:54:33;3.80;;;2.90;;
11125;SDS011;5617;54.046;10.676;2023-05-10T02:56:50;3.80;;;2.93;;
11125;SDS011;5617;54.046;10.676;2023-05-10T02:59:04;5.27;;;3.10;;
11125;SDS011;5617;54.046;10.676;2023-05-10T03:01:12;3.77;;;2.97;;
11125;SDS011;5617;54.046;10.676;2023-05-10T03:03:19;3.13;;;2.90;;
11125;SDS011;5617;54.046;10.676;2023-05-10T03:05:29;3.27;;;2.97;;
11125;SDS011;5617;54.046;10.676;2023-05-10T03:07:38;3.33;;;3.00;;
11125;SDS011;5617;54.046;10.676;2023-05-10T03:09:45;3.57;;;2.97;;
11125;SDS011;5617;54.046;10.676;2023-05-10T03:11:55;3.37;;;3.03;;
11125;SDS011;5617;54.046;10.676;2023-05-10T03:14:10;3.93;;;3.07;;
11125;SDS011;5617;54.046;10.676;2023-05-10T03:16:24;3.87;;;2.90;;
11125;SDS011;5617;54.046;10.676;2023-05-10T03:18:37;4.13;;;3.10;;
11125;SDS011;5617;54.046;10.676;2023-05-10T03:20:54;3.83;;;3.13;;
11125;SDS011;5617;54.046;10.676;2023-05-10T03:23:07;3.90;;;3.03;;
11125;SDS011;5617;54.046;10.676;2023-05-10T03:25:20;3.83;;;3.00;;
11125;SDS011;5617;54.046;10.676;2023-05-10T03:27:29;4.50;;;2.83;;
11125;SDS011;5617;54.046;10.676;2023-05-10T03:29:38;3.70;;;3.00;;
11125;SDS011;5617;54.046;10.676;2023-05-10T03:31:46;3.73;;;3.10;;
11125;SDS011;5617;54.046;10.676;2023-05-10T03:33:54;5.77;;;3.07;;
11125;SDS011;5617;54.046;10.676;2023-05-10T03:36:03;3.77;;;3.03;;
11125;SDS011;5617;54.046;10.676;2023-05-10T03:38:15;4.07;;;2.93;;
11125;SDS011;5617;54.046;10.676;2023-05-10T03:40:22;3.90;;;3.43;;
11125;SDS011;5617;54.046;10.676;2023-05-10T03:42:31;4.83;;;3.37;;
11125;SDS011;5617;54.046;10.676;2023-05-10T03:44:38;3.80;;;3.10;;
11125;SDS011;5617;54.046;10.676;2023-05-10T03:46:46;3.30;;;2.97;;
11125;SDS011;5617;54.046;10.676;2023-05-10T03:48:55;3.50;;;2.80;;
11125;SDS011;5617;54.046;10.676;2023-05-10T03:51:04;4.03;;;3.40;;
11125;SDS011;5617;54.046;10.676;2023-05-10T03:53:13;4.77;;;3.40;;
11125;SDS011;5617;54.046;10.676;2023-05-10T03:55:21;4.73;;;3.33;;
11125;SDS011;5617;54.046;10.676;2023-05-10T03:57:29;3.57;;;3.13;;
11125;SDS011;5617;54.046;10.676;2023-05-10T03:59:39;4.87;;;3.33;;
11125;SDS011;5617;54.046;10.676;2023-05-10T04:01:46;3.43;;;3.13;;
11125;SDS011;5617;54.046;10.676;2023-05-10T04:03:55;4.73;;;3.13;;
11125;SDS011;5617;54.046;10.676;2023-05-10T04:06:05;3.40;;;3.10;;
11125;SDS011;5617;54.046;10.676;2023-05-10T04:08:15;3.80;;;3.40;;
11125;SDS011;5617;54.046;10.676;2023-05-10T04:10:22;3.60;;;3.17;;
11125;SDS011;5617;54.046;10.676;2023-05-10T04:12:30;3.50;;;3.03;;
11125;SDS011;5617;54.046;10.676;2023-05-10T04:14:38;5.97;;;3.67;;
11125;SDS011;5617;54.046;10.676;2023-05-10T04:16:45;3.80;;;3.20;;
11125;SDS011;5617;54.046;10.676;2023-05-10T04:18:53;3.53;;;3.17;;
11125;SDS011;5617;54.046;10.676;2023-05-10T04:21:00;3.60;;;3.10;;
11125;SDS011;5617;54.046;10.676;2023-05-10T04:23:09;3.80;;;3.40;;
11125;SDS011;5617;54.046;10.676;2023-05-10T04:25:17;3.60;;;3.20;;
11125;SDS011;5617;54.046;10.676;2023-05-10T04:27:25;3.87;;;3.57;;
11125;SDS011;5617;54.046;10.676;2023-05-10T04:29:33;3.87;;;3.47;;
11125;SDS011;5617;54.046;10.676;2023-05-10T04:31:40;3.30;;;3.00;;
11125;SDS011;5617;54.046;10.676;2023-05-10T04:33:48;6.70;;;3.03;;
11125;SDS011;5617;54.046;10.676;2023-05-10T04:35:55;3.60;;;3.30;;
11125;SDS011;5617;54.046;10.676;2023-05-10T04:38:03;3.90;;;3.40;;
11125;SDS011;5617;54.046;10.676;2023-05-10T04:40:13;3.50;;;2.83;;
11125;SDS011;5617;54.046;10.676;2023-05-10T04:42:21;4.10;;;3.10;;
11125;SDS011;5617;54.046;10.676;2023-05-10T04:44:28;3.20;;;2.90;;
11125;SDS011;5617;54.046;10.676;2023-05-10T04:46:36;3.50;;;3.20;;
11125;SDS011;5617;54.046;10.676;2023-05-10T04:48:44;4.13;;;2.70;;
11125;SDS011;5617;54.046;10.676;2023-05-10T04:50:51;4.30;;;3.13;;
11125;SDS011;5617;54.046;10.676;2023-05-10T04:52:59;3.93;;;3.03;;
11125;SDS011;5617;54.046;10.676;2023-05-10T04:55:07;3.70;;;3.10;;
11125;SDS011;5617;54.046;10.676;2023-05-10T04:57:17;3.50;;;3.20;;
11125;SDS011;5617;54.046;10.676;2023-05-10T04:59:25;3.80;;;2.80;;
11125;SDS011;5617;54.046;10.676;2023-05-10T05:01:32;3.47;;;2.97;;
11125;SDS011;5617;54.046;10.676;2023-05-10T05:03:40;3.97;;;3.40;;
11125;SDS011;5617;54.046;10.676;2023-05-10T05:05:48;3.43;;;3.13;;
11125;SDS011;5617;54.046;10.676;2023-05-10T05:07:55;3.53;;;2.83;;
11125;SDS011;5617;54.046;10.676;2023-05-10T05:10:03;3.40;;;3.10;;
11125;SDS011;5617;54.046;10.676;2023-05-10T05:12:12;4.50;;;3.30;;
11125;SDS011;5617;54.046;10.676;2023-05-10T05:14:21;4.87;;;3.33;;
11125;SDS011;5617;54.046;10.676;2023-05-10T05:16:30;3.77;;;3.10;;
11125;SDS011;5617;54.046;10.676;2023-05-10T05:18:38;4.13;;;3.00;;
11125;SDS011;5617;54.046;10.676;2023-05-10T05:20:46;3.63;;;3.27;;
11125;SDS011;5617;54.046;10.676;2023-05-10T05:22:53;3.80;;;3.37;;
11125;SDS011;5617;54.046;10.676;2023-05-10T05:25:04;3.63;;;3.30;;
11125;SDS011;5617;54.046;10.676;2023-05-10T05:27:12;3.40;;;3.10;;
11125;SDS011;5617;54.046;10.676;2023-05-10T05:29:21;3.60;;;3.30;;
11125;SDS011;5617;54.046;10.676;2023-05-10T05:31:29;3.90;;;3.50;;
11125;SDS011;5617;54.046;10.676;2023-05-10T05:33:36;4.37;;;3.40;;
11125;SDS011;5617;54.046;10.676;2023-05-10T05:35:44;3.97;;;3.60;;
11125;SDS011;5617;54.046;10.676;2023-05-10T05:37:56;3.53;;;3.23;;
11125;SDS011;5617;54.046;10.676;2023-05-10T05:40:04;3.10;;;2.80;;
11125;SDS011;5617;54.046;10.676;2023-05-10T05:42:13;3.40;;;3.10;;
11125;SDS011;5617;54.046;10.676;2023-05-10T05:44:23;5.30;;;3.00;;
11125;SDS011;5617;54.046;10.676;2023-05-10T05:46:31;4.63;;;3.30;;
11125;SDS011;5617;54.046;10.676;2023-05-10T05:48:39;3.83;;;3.20;;
11125;SDS011;5617;54.046;10.676;2023-05-10T05:50:46;3.67;;;3.00;;
11125;SDS011;5617;54.046;10.676;2023-05-10T05:52:56;3.70;;;3.33;;
11125;SDS011;5617;54.046;10.676;2023-05-10T05:55:04;6.10;;;5.50;;
11125;SDS011;5617;54.046;10.676;2023-05-10T05:57:12;5.10;;;3.77;;
11125;SDS011;5617;54.046;10.676;2023-05-10T05:59:19;4.67;;;3.50;;
11125;SDS011;5617;54.046;10.676;2023-05-10T06:01:28;3.60;;;3.30;;
11125;SDS011;5617;54.046;10.676;2023-05-10T06:03:36;6.07;;;3.30;;
11125;SDS011;5617;54.046;10.676;2023-05-10T06:05:44;3.77;;;3.10;;
11125;SDS011;5617;54.046;10.676;2023-05-10T06:07:51;4.17;;;3.30;;
11125;SDS011;5617;54.046;10.676;2023-05-10T06:10:00;4.37;;;3.57;;
11125;SDS011;5617;54.046;10.676;2023-05-10T06:12:09;3.70;;;3.20;;
11125;SDS011;5617;54.046;10.676;2023-05-10T06:14:17;3.40;;;3.03;;
11125;SDS011;5617;54.046;10.676;2023-05-10T06:16:28;3.07;;;2.77;;
11125;SDS011;5617;54.046;10.676;2023-05-10T06:18:36;5.30;;;3.30;;
11125;SDS011;5617;54.046;10.676;2023-05-10T06:20:44;3.77;;;2.90;;
11125;SDS011;5617;54.046;10.676;2023-05-10T06:22:51;3.40;;;2.83;;
11125;SDS011;5617;54.046;10.676;2023-05-10T06:24:59;3.53;;;2.90;;
11125;SDS011;5617;54.046;10.676;2023-05-10T06:27:07;4.43;;;3.33;;
11125;SDS011;5617;54.046;10.676;2023-05-10T06:29:15;4.00;;;3.03;;
11125;SDS011;5617;54.046;10.676;2023-05-10T06:31:22;3.70;;;3.13;;
11125;SDS011;5617;54.046;10.676;2023-05-10T06:33:32;4.40;;;3.10;;
11125;SDS011;5617;54.046;10.676;2023-05-10T06:35:40;5.43;;;3.20;;
11125;SDS011;5617;54.046;10.676;2023-05-10T06:37:47;4.90;;;2.93;;
11125;SDS011;5617;54.046;10.676;2023-05-10T06:39:55;3.17;;;2.87;;
11125;SDS011;5617;54.046;10.676;2023-05-10T06:42:03;3.87;;;3.10;;
11125;SDS011;5617;54.046;10.676;2023-05-10T06:44:11;3.10;;;2.83;;
11125;SDS011;5617;54.046;10.676;2023-05-10T06:46:19;3.80;;;3.10;;
11125;SDS011;5617;54.046;10.676;2023-05-10T06:48:26;3.00;;;2.80;;
11125;SDS011;5617;54.046;10.676;2023-05-10T06:50:35;3.00;;;2.70;;
11125;SDS011;5617;54.046;10.676;2023-05-10T06:52:43;4.17;;;3.13;;
11125;SDS011;5617;54.046;10.676;2023-05-10T06:54:51;12.63;;;3.93;;
11125;SDS011;5617;54.046;10.676;2023-05-10T06:56:58;3.27;;;2.70;;
11125;SDS011;5617;54.046;10.676;2023-05-10T06:59:10;4.13;;;3.17;;
11125;SDS011;5617;54.046;10.676;2023-05-10T07:01:19;4.23;;;3.40;;
11125;SDS011;5617;54.046;10.676;2023-05-10T07:03:27;4.17;;;3.30;;
11125;SDS011;5617;54.046;10.676;2023-05-10T07:05:42;4.03;;;2.83;;
11125;SDS011;5617;54.046;10.676;2023-05-10T07:07:50;3.70;;;2.70;;
11125;SDS011;5617;54.046;10.676;2023-05-10T07:09:58;3.97;;;3.30;;
11125;SDS011;5617;54.046;10.676;2023-05-10T07:12:06;4.40;;;3.20;;
11125;SDS011;5617;54.046;10.676;2023-05-10T07:14:17;3.37;;;3.07;;
11125;SDS011;5617;54.046;10.676;2023-05-10T07:16:25;3.43;;;3.13;;
11125;SDS011;5617;54.046;10.676;2023-05-10T07:18:33;3.83;;;3.03;;
11125;SDS011;5617;54.046;10.676;2023-05-10T07:20:40;3.10;;;2.80;;
11125;SDS011;5617;54.046;10.676;2023-05-10T07:22:49;2.93;;;2.73;;
11125;SDS011;5617;54.046;10.676;2023-05-10T07:24:57;3.20;;;2.93;;
11125;SDS011;5617;54.046;10.676;2023-05-10T07:27:04;3.43;;;3.10;;
11125;SDS011;5617;54.046;10.676;2023-05-10T07:29:12;3.20;;;2.90;;
11125;SDS011;5617;54.046;10.676;2023-05-10T07:31:20;3.40;;;2.90;;
11125;SDS011;5617;54.046;10.676;2023-05-10T07:33:27;3.07;;;2.73;;
11125;SDS011;5617;54.046;10.676;2023-05-10T07:35:35;4.40;;;3.20;;
11125;SDS011;5617;54.046;10.676;2023-05-10T07:37:44;3.87;;;2.70;;
11125;SDS011;5617;54.046;10.676;2023-05-10T07:39:52;3.20;;;2.90;;
11125;SDS011;5617;54.046;10.676;2023-05-10T07:42:00;3.60;;;3.00;;
11125;SDS011;5617;54.046;10.676;2023-05-10T07:44:08;3.40;;;3.10;;
11125;SDS011;5617;54.046;10.676;2023-05-10T07:46:16;2.77;;;2.57;;
11125;SDS011;5617;54.046;10.676;2023-05-10T07:48:25;3.33;;;3.03;;
11125;SDS011;5617;54.046;10.676;2023-05-10T07:50:33;3.13;;;2.67;;
11125;SDS011;5617;54.046;10.676;2023-05-10T07:52:45;3.50;;;2.63;;
11125;SDS011;5617;54.046;10.676;2023-05-10T07:54:52;3.43;;;2.60;;
11125;SDS011;5617;54.046;10.676;2023-05-10T07:57:00;3.83;;;2.70;;
11125;SDS011;5617;54.046;10.676;2023-05-10T07:59:08;3.00;;;2.70;;
11125;SDS011;5617;54.046;10.676;2023-05-10T08:01:19;2.87;;;2.67;;
11125;SDS011;5617;54.046;10.676;2023-05-10T08:03:27;3.20;;;2.90;;
11125;SDS011;5617;54.046;10.676;2023-05-10T08:05:34;3.30;;;3.00;;
11125;SDS011;5617;54.046;10.676;2023-05-10T08:07:42;5.27;;;3.20;;
11125;SDS011;5617;54.046;10.676;2023-05-10T08:09:51;3.67;;;2.93;;
11125;SDS011;5617;54.046;10.676;2023-05-10T08:11:58;3.40;;;2.80;;
11125;SDS011;5617;54.046;10.676;2023-05-10T08:14:06;4.33;;;2.73;;
11125;SDS011;5617;54.046;10.676;2023-05-10T08:16:13;3.20;;;2.90;;
11125;SDS011;5617;54.046;10.676;2023-05-10T08:18:21;3.80;;;3.17;;
11125;SDS011;5617;54.046;10.676;2023-05-10T08:20:29;3.20;;;2.90;;
11125;SDS011;5617;54.046;10.676;2023-05-10T08:22:36;3.20;;;2.90;;
11125;SDS011;5617;54.046;10.676;2023-05-10T08:24:44;4.30;;;2.80;;
11125;SDS011;5617;54.046;10.676;2023-05-10T08:26:53;7.03;;;2.80;;
11125;SDS011;5617;54.046;10.676;2023-05-10T08:29:00;3.67;;;2.67;;
11125;SDS011;5617;54.046;10.676;2023-05-10T08:31:09;5.43;;;2.73;;
11125;SDS011;5617;54.046;10.676;2023-05-10T08:33:17;3.00;;;2.70;;
11125;SDS011;5617;54.046;10.676;2023-05-10T08:35:24;4.20;;;2.97;;
11125;SDS011;5617;54.046;10.676;2023-05-10T08:37:32;2.80;;;2.60;;
11125;SDS011;5617;54.046;10.676;2023-05-10T08:39:40;2.73;;;2.53;;
11125;SDS011;5617;54.046;10.676;2023-05-10T08:41:47;4.20;;;3.30;;
11125;SDS011;5617;54.046;10.676;2023-05-10T08:43:59;5.50;;;3.37;;
11125;SDS011;5617;54.046;10.676;2023-05-10T08:46:11;4.70;;;3.20;;
11125;SDS011;5617;54.046;10.676;2023-05-10T08:48:23;3.67;;;3.00;;
11125;SDS011;5617;54.046;10.676;2023-05-10T08:50:31;3.93;;;3.10;;
11125;SDS011;5617;54.046;10.676;2023-05-10T08:52:40;3.23;;;2.67;;
11125;SDS011;5617;54.046;10.676;2023-05-10T08:54:48;4.33;;;2.90;;
11125;SDS011;5617;54.046;10.676;2023-05-10T08:56:56;5.70;;;3.30;;
11125;SDS011;5617;54.046;10.676;2023-05-10T08:59:05;4.63;;;3.00;;
11125;SDS011;5617;54.046;10.676;2023-05-10T09:01:13;3.17;;;2.87;;
11125;SDS011;5617;54.046;10.676;2023-05-10T09:03:23;3.40;;;2.83;;
11125;SDS011;5617;54.046;10.676;2023-05-10T09:05:32;3.87;;;3.17;;
11125;SDS011;5617;54.046;10.676;2023-05-10T09:07:39;4.03;;;2.90;;
11125;SDS011;5617;54.046;10.676;2023-05-10T09:09:47;4.10;;;2.80;;
11125;SDS011;5617;54.046;10.676;2023-05-10T09:11:55;4.03;;;3.00;;
11125;SDS011;5617;54.046;10.676;2023-05-10T09:14:03;4.70;;;3.00;;
11125;SDS011;5617;54.046;10.676;2023-05-10T09:16:12;4.57;;;3.10;;
11125;SDS011;5617;54.046;10.676;2023-05-10T09:18:28;5.67;;;3.10;;
11125;SDS011;5617;54.046;10.676;2023-05-10T09:20:36;2.93;;;2.70;;
11125;SDS011;5617;54.046;10.676;2023-05-10T09:22:44;3.00;;;2.80;;
11125;SDS011;5617;54.046;10.676;2023-05-10T09:25:03;3.30;;;3.00;;
11125;SDS011;5617;54.046;10.676;2023-05-10T09:27:11;4.03;;;2.70;;
11125;SDS011;5617;54.046;10.676;2023-05-10T09:29:21;4.37;;;2.80;;
11125;SDS011;5617;54.046;10.676;2023-05-10T09:31:45;3.90;;;3.17;;
11125;SDS011;5617;54.046;10.676;2023-05-10T09:33:54;4.27;;;3.00;;
11125;SDS011;5617;54.046;10.676;2023-05-10T09:36:06;3.03;;;2.73;;
11125;SDS011;5617;54.046;10.676;2023-05-10T09:38:14;2.90;;;2.70;;
11125;SDS011;5617;54.046;10.676;2023-05-10T09:40:22;3.83;;;3.33;;
11125;SDS011;5617;54.046;10.676;2023-05-10T09:42:31;4.00;;;3.00;;
11125;SDS011;5617;54.046;10.676;2023-05-10T09:44:41;3.50;;;3.20;;
11125;SDS011;5617;54.046;10.676;2023-05-10T09:46:49;4.20;;;3.00;;
11125;SDS011;5617;54.046;10.676;2023-05-10T09:48:59;4.50;;;3.07;;
11125;SDS011;5617;54.046;10.676;2023-05-10T09:51:07;4.47;;;3.33;;
11125;SDS011;5617;54.046;10.676;2023-05-10T09:53:14;2.80;;;2.60;;
11125;SDS011;5617;54.046;10.676;2023-05-10T09:55:23;3.03;;;2.83;;
11125;SDS011;5617;54.046;10.676;2023-05-10T09:57:31;3.93;;;2.97;;
11125;SDS011;5617;54.046;10.676;2023-05-10T09:59:43;3.53;;;2.90;;
11125;SDS011;5617;54.046;10.676;2023-05-10T10:01:51;5.93;;;3.20;;
11125;SDS011;5617;54.046;10.676;2023-05-10T10:04:00;3.67;;;2.97;;
11125;SDS011;5617;54.046;10.676;2023-05-10T10:06:10;3.17;;;2.90;;
11125;SDS011;5617;54.046;10.676;2023-05-10T10:08:33;5.73;;;2.90;;
11125;SDS011;5617;54.046;10.676;2023-05-10T10:10:41;3.67;;;3.20;;
11125;SDS011;5617;54.046;10.676;2023-05-10T10:12:51;5.13;;;3.10;;
11125;SDS011;5617;54.046;10.676;2023-05-10T10:15:00;3.40;;;2.90;;
11125;SDS011;5617;54.046;10.676;2023-05-10T10:17:10;4.17;;;3.17;;
11125;SDS011;5617;54.046;10.676;2023-05-10T10:19:19;4.43;;;3.13;;
11125;SDS011;5617;54.046;10.676;2023-05-10T10:21:27;5.80;;;3.17;;
11125;SDS011;5617;54.046;10.676;2023-05-10T10:23:36;3.07;;;2.87;;
11125;SDS011;5617;54.046;10.676;2023-05-10T10:25:44;4.87;;;3.10;;
11125;SDS011;5617;54.046;10.676;2023-05-10T10:27:57;3.40;;;2.83;;
11125;SDS011;5617;54.046;10.676;2023-05-10T10:30:20;7.47;;;2.80;;
11125;SDS011;5617;54.046;10.676;2023-05-10T10:32:35;4.93;;;3.13;;
11125;SDS011;5617;54.046;10.676;2023-05-10T10:34:53;4.70;;;2.87;;
11125;SDS011;5617;54.046;10.676;2023-05-10T10:37:03;3.00;;;2.70;;
11125;SDS011;5617;54.046;10.676;2023-05-10T10:39:12;3.03;;;2.83;;
11125;SDS011;5617;54.046;10.676;2023-05-10T10:41:27;3.47;;;2.90;;
11125;SDS011;5617;54.046;10.676;2023-05-10T10:43:35;6.40;;;3.20;;
11125;SDS011;5617;54.046;10.676;2023-05-10T10:45:45;3.53;;;3.23;;
11125;SDS011;5617;54.046;10.676;2023-05-10T10:48:21;3.37;;;3.00;;
11125;SDS011;5617;54.046;10.676;2023-05-10T10:50:29;4.83;;;3.00;;
11125;SDS011;5617;54.046;10.676;2023-05-10T10:52:37;3.60;;;3.30;;
11125;SDS011;5617;54.046;10.676;2023-05-10T10:54:52;3.00;;;2.80;;
11125;SDS011;5617;54.046;10.676;2023-05-10T10:57:11;7.37;;;3.20;;
11125;SDS011;5617;54.046;10.676;2023-05-10T10:59:26;5.03;;;3.23;;
11125;SDS011;5617;54.046;10.676;2023-05-10T11:01:35;3.40;;;3.10;;
11125;SDS011;5617;54.046;10.676;2023-05-10T11:03:54;4.07;;;2.90;;
11125;SDS011;5617;54.046;10.676;2023-05-10T11:06:28;4.37;;;3.20;;
11125;SDS011;5617;54.046;10.676;2023-05-10T11:08:41;3.63;;;3.13;;
11125;SDS011;5617;54.046;10.676;2023-05-10T11:11:02;3.90;;;3.47;;
11125;SDS011;5617;54.046;10.676;2023-05-10T11:13:13;4.17;;;3.27;;
11125;SDS011;5617;54.046;10.676;2023-05-10T11:15:28;3.27;;;3.00;;
11125;SDS011;5617;54.046;10.676;2023-05-10T11:17:37;3.20;;;2.90;;
11125;SDS011;5617;54.046;10.676;2023-05-10T11:22:14;3.30;;;3.00;;
11125;SDS011;5617;54.046;10.676;2023-05-10T11:24:22;3.20;;;2.93;;
11125;SDS011;5617;54.046;10.676;2023-05-10T11:26:34;3.00;;;2.80;;
11125;SDS011;5617;54.046;10.676;2023-05-10T11:28:43;3.47;;;2.90;;
11125;SDS011;5617;54.046;10.676;2023-05-10T11:30:51;3.83;;;2.97;;
11125;SDS011;5617;54.046;10.676;2023-05-10T11:33:00;3.97;;;3.10;;
11125;SDS011;5617;54.046;10.676;2023-05-10T11:35:08;3.33;;;2.87;;
11125;SDS011;5617;54.046;10.676;2023-05-10T11:37:17;3.93;;;3.17;;
11125;SDS011;5617;54.046;10.676;2023-05-10T11:39:25;3.03;;;2.73;;
11125;SDS011;5617;54.046;10.676;2023-05-10T11:41:33;3.10;;;2.80;;
11125;SDS011;5617;54.046;10.676;2023-05-10T11:43:41;3.13;;;2.73;;
11125;SDS011;5617;54.046;10.676;2023-05-10T11:45:49;3.43;;;3.03;;
11125;SDS011;5617;54.046;10.676;2023-05-10T11:47:57;3.70;;;3.10;;
11125;SDS011;5617;54.046;10.676;2023-05-10T11:50:07;3.33;;;2.90;;
11125;SDS011;5617;54.046;10.676;2023-05-10T11:52:15;4.57;;;3.20;;
11125;SDS011;5617;54.046;10.676;2023-05-10T11:54:26;4.13;;;2.93;;
11125;SDS011;5617;54.046;10.676;2023-05-10T11:56:33;3.70;;;2.90;;
11125;SDS011;5617;54.046;10.676;2023-05-10T11:58:41;3.33;;;3.03;;
11125;SDS011;5617;54.046;10.676;2023-05-10T12:00:49;4.70;;;2.90;;
11125;SDS011;5617;54.046;10.676;2023-05-10T12:03:00;5.20;;;3.10;;
11125;SDS011;5617;54.046;10.676;2023-05-10T12:05:10;3.20;;;2.90;;
11125;SDS011;5617;54.046;10.676;2023-05-10T12:07:18;3.63;;;3.23;;
11125;SDS011;5617;54.046;10.676;2023-05-10T12:09:26;3.50;;;3.20;;
11125;SDS011;5617;54.046;10.676;2023-05-10T12:11:49;4.83;;;3.00;;
11125;SDS011;5617;54.046;10.676;2023-05-10T12:14:03;6.50;;;3.07;;
11125;SDS011;5617;54.046;10.676;2023-05-10T12:16:12;4.20;;;3.23;;
11125;SDS011;5617;54.046;10.676;2023-05-10T12:18:22;3.20;;;2.90;;
11125;SDS011;5617;54.046;10.676;2023-05-10T12:20:32;8.73;;;2.97;;
11125;SDS011;5617;54.046;10.676;2023-05-10T12:22:40;4.17;;;3.00;;
11125;SDS011;5617;54.046;10.676;2023-05-10T12:24:47;3.97;;;3.37;;
11125;SDS011;5617;54.046;10.676;2023-05-10T12:26:56;3.50;;;3.20;;
11125;SDS011;5617;54.046;10.676;2023-05-10T12:29:13;5.43;;;3.20;;
11125;SDS011;5617;54.046;10.676;2023-05-10T12:31:22;5.90;;;3.27;;
11125;SDS011;5617;54.046;10.676;2023-05-10T12:33:35;5.03;;;3.60;;
11125;SDS011;5617;54.046;10.676;2023-05-10T12:35:46;3.40;;;3.10;;
11125;SDS011;5617;54.046;10.676;2023-05-10T12:37:55;4.07;;;2.90;;
11125;SDS011;5617;54.046;10.676;2023-05-10T12:40:02;5.03;;;3.10;;
11125;SDS011;5617;54.046;10.676;2023-05-10T12:42:11;4.20;;;3.00;;
11125;SDS011;5617;54.046;10.676;2023-05-10T12:44:18;3.67;;;3.07;;
11125;SDS011;5617;54.046;10.676;2023-05-10T12:46:26;4.77;;;3.40;;
11125;SDS011;5617;54.046;10.676;2023-05-10T12:48:34;3.73;;;3.20;;
11125;SDS011;5617;54.046;10.676;2023-05-10T12:50:43;3.10;;;2.80;;
11125;SDS011;5617;54.046;10.676;2023-05-10T12:52:52;3.20;;;3.00;;
11125;SDS011;5617;54.046;10.676;2023-05-10T12:55:00;3.87;;;3.43;;
11125;SDS011;5617;54.046;10.676;2023-05-10T12:57:08;3.50;;;3.20;;
11125;SDS011;5617;54.046;10.676;2023-05-10T12:59:16;3.53;;;3.27;;
11125;SDS011;5617;54.046;10.676;2023-05-10T13:01:24;4.27;;;3.87;;
11125;SDS011;5617;54.046;10.676;2023-05-10T13:03:31;4.90;;;3.77;;
11125;SDS011;5617;54.046;10.676;2023-05-10T13:05:39;6.00;;;4.17;;